»·PEaware :: N237CA KMHR-KSBP

N237CA :: KMHR-KSBP

FLIGHT INFORMATION

Flight Status: Arrived
Operator: Privately registered:
United States
More flights under this callsign
Pilot: Ryan C. (15122)
Aircraft: CESSNA 172 SKYHAWK
(C172)
More flights by this aircraft type
Origin: KMHR Mather
United States
Destination: KSBP San Luis Co Regl
United States
More flights between these airports :: More routes between these airports
Route: +
File this flight plan on PilotEdge
Remarks:
Altitude:
(Current/Filed)
9,500ft
Speed:
(Current/Filed)
0kts
Departed: 14-May-18 08:49 AM
Arrived: 14-May-18 10:46 AM
Distance/Time
Traveled:
201nm/1:57
Distance/Time
To Go:
Arrived

Flight Plot

Page will automatically refresh every two minutes.

Flight plan parsing failed; only flown route is shown


Map Options




Map Legend


Flown Route
Filed Route
Departure Airport
Arrival Airport
Navaid (VOR, NDB)
Fix

Horizontal Profiles

Position Reports

Time Latitude Longitude Heading Altitude Ground
Speed
14-May-18 08:48 38.596117 -121.287657 147 3733ft 102kts
14-May-18 08:49 38.568731 -121.272218 155 4129ft 102kts
14-May-18 08:50 38.543818 -121.258617 149 4875ft 97kts
14-May-18 08:51 38.519150 -121.245112 150 5574ft 96kts
14-May-18 08:52 38.494116 -121.231430 154 6276ft 98kts
14-May-18 08:53 38.468765 -121.217554 152 6933ft 101kts
14-May-18 08:54 38.442702 -121.203365 152 7535ft 102kts
14-May-18 08:55 38.416712 -121.189219 152 8134ft 101kts
14-May-18 08:56 38.391087 -121.175245 154 8734ft 99kts
14-May-18 08:57 38.366102 -121.161662 153 9328ft 97kts
14-May-18 08:58 38.338435 -121.146599 153 9475ft 118kts
14-May-18 08:59 38.308423 -121.130447 153 9473ft 117kts
14-May-18 09:00 38.278495 -121.114120 153 9471ft 117kts
14-May-18 09:01 38.248724 -121.097950 154 9474ft 116kts
14-May-18 09:02 38.218862 -121.081840 152 9473ft 117kts
14-May-18 09:03 38.188957 -121.065611 152 9472ft 116kts
14-May-18 09:04 38.159044 -121.049443 153 9473ft 117kts
14-May-18 09:05 38.129055 -121.033359 154 9473ft 117kts
14-May-18 09:06 38.099090 -121.017267 152 9472ft 117kts
14-May-18 09:07 38.069116 -121.001166 168 9468ft 118kts
14-May-18 09:08 38.035753 -121.001006 176 9429ft 121kts
14-May-18 09:09 38.002487 -120.999248 175 9428ft 119kts
14-May-18 09:10 37.969463 -120.995999 172 9425ft 119kts
14-May-18 09:11 37.936590 -120.992148 172 9428ft 118kts
14-May-18 09:12 37.903624 -120.988517 171 9427ft 119kts
14-May-18 09:13 37.871016 -120.985237 173 9424ft 118kts
14-May-18 09:14 37.838290 -120.981504 171 9425ft 118kts
14-May-18 09:15 37.805432 -120.977979 173 9425ft 118kts
14-May-18 09:16 37.772716 -120.974740 172 9426ft 118kts
14-May-18 09:17 37.740165 -120.970950 173 9453ft 119kts
14-May-18 09:18 37.706855 -120.966937 175 9454ft 121kts
14-May-18 09:19 37.673248 -120.963667 174 9453ft 121kts
14-May-18 09:20 37.639571 -120.959902 174 9453ft 121kts
14-May-18 09:21 37.606955 -120.962443 202 9454ft 120kts
14-May-18 09:22 37.573977 -120.966524 175 9454ft 121kts
14-May-18 09:23 37.540444 -120.962027 171 9454ft 121kts
14-May-18 09:24 37.506922 -120.955973 170 9454ft 121kts
14-May-18 09:25 37.473794 -120.949249 169 9454ft 121kts
14-May-18 09:26 37.440482 -120.941991 168 9454ft 121kts
14-May-18 09:27 37.407173 -120.934238 168 9455ft 121kts
14-May-18 09:28 37.374009 -120.925930 167 9455ft 121kts
14-May-18 09:29 37.340860 -120.917733 170 9456ft 121kts
14-May-18 09:30 37.307475 -120.910932 169 9456ft 122kts
14-May-18 09:31 37.274178 -120.903583 168 9457ft 122kts
14-May-18 09:32 37.240844 -120.895639 168 9458ft 122kts
14-May-18 09:33 37.207551 -120.888243 170 9460ft 122kts
14-May-18 09:34 37.174075 -120.881594 170 9461ft 122kts
14-May-18 09:35 37.140669 -120.874379 169 9463ft 122kts
14-May-18 09:36 37.107345 -120.866604 168 9466ft 122kts
14-May-18 09:37 37.074213 -120.858314 166 9472ft 120kts
14-May-18 09:38 37.041193 -120.851694 168 9478ft 119kts
14-May-18 09:39 37.008645 -120.845251 167 9483ft 117kts
14-May-18 09:40 36.976692 -120.838390 166 9487ft 116kts
14-May-18 09:41 36.945233 -120.831147 165 9489ft 114kts
14-May-18 09:42 36.913962 -120.823405 165 9487ft 114kts
14-May-18 09:43 36.882862 -120.816281 168 9485ft 114kts
14-May-18 09:44 36.851374 -120.810439 167 9483ft 114kts
14-May-18 09:45 36.819908 -120.804043 167 9482ft 114kts
14-May-18 09:46 36.788607 -120.797107 166 9480ft 114kts
14-May-18 09:47 36.757309 -120.789666 165 9479ft 114kts
14-May-18 09:48 36.726051 -120.782997 166 9477ft 114kts
14-May-18 09:49 36.694692 -120.775587 165 9475ft 114kts
14-May-18 09:50 36.663439 -120.771909 183 9470ft 116kts
14-May-18 09:51 36.631285 -120.772789 175 9475ft 115kts
14-May-18 09:52 36.602267 -120.771035 172 9476ft 115kts
14-May-18 09:53 36.570384 -120.767671 171 9477ft 115kts
14-May-18 09:54 36.538664 -120.763568 170 9477ft 114kts
14-May-18 09:55 36.507176 -120.758195 165 9478ft 114kts
14-May-18 09:56 36.475804 -120.751514 167 9478ft 114kts
14-May-18 09:57 36.444422 -120.745807 168 9483ft 114kts
14-May-18 09:58 36.412848 -120.740551 169 9489ft 114kts
14-May-18 09:59 36.395245 -120.715111 98 9492ft 107kts
14-May-18 10:00 36.380503 -120.682385 117 9491ft 109kts
14-May-18 10:01 36.363417 -120.651286 140 9489ft 111kts
14-May-18 10:02 36.338729 -120.628419 138 9492ft 111kts
14-May-18 10:03 36.314256 -120.604924 138 9492ft 111kts
14-May-18 10:04 36.289816 -120.581537 139 9491ft 111kts
14-May-18 10:05 36.265402 -120.557974 129 9489ft 110kts
14-May-18 10:06 36.249690 -120.525874 118 9492ft 109kts
14-May-18 10:07 36.234055 -120.493617 118 9492ft 109kts
14-May-18 10:08 36.218368 -120.461312 118 9493ft 109kts
14-May-18 10:09 36.202714 -120.429165 118 9493ft 109kts
14-May-18 10:10 36.185840 -120.397889 140 9484ft 111kts
14-May-18 10:11 36.164894 -120.370777 130 9482ft 110kts
14-May-18 10:12 36.143716 -120.343463 132 9480ft 111kts
14-May-18 10:13 36.114721 -120.348194 202 9480ft 117kts
14-May-18 10:14 36.084704 -120.364278 200 9482ft 117kts
14-May-18 10:15 36.054473 -120.379639 200 9485ft 117kts
14-May-18 10:16 36.023354 -120.394937 200 9223ft 127kts
14-May-18 10:17 35.991522 -120.411737 202 8884ft 124kts
14-May-18 10:18 35.959131 -120.424977 191 8599ft 122kts
14-May-18 10:19 35.926576 -120.434423 190 8421ft 118kts
14-May-18 10:20 35.896606 -120.445755 196 8480ft 111kts
14-May-18 10:21 35.867175 -120.457903 192 8594ft 113kts
14-May-18 10:22 35.841205 -120.466041 195 8616ft 117kts
14-May-18 10:23 35.810231 -120.477299 202 8662ft 117kts
14-May-18 10:24 35.779603 -120.491808 202 8663ft 119kts
14-May-18 10:25 35.748653 -120.505777 191 8659ft 119kts
14-May-18 10:26 35.716639 -120.518313 197 8533ft 120kts
14-May-18 10:27 35.684564 -120.529192 193 8441ft 119kts
14-May-18 10:28 35.653278 -120.539272 192 8467ft 114kts
14-May-18 10:29 35.621743 -120.548015 186 8428ft 116kts
14-May-18 10:30 35.590015 -120.555519 187 8436ft 116kts
14-May-18 10:31 35.558124 -120.561472 188 8425ft 117kts
14-May-18 10:32 35.518666 -120.568957 189 7904ft 126kts
14-May-18 10:33 35.490292 -120.575957 191 7440ft 125kts
14-May-18 10:34 35.457032 -120.584761 192 6855ft 124kts
14-May-18 10:35 35.425699 -120.593120 193 6468ft 120kts
14-May-18 10:36 35.393764 -120.601886 193 6311ft 119kts
14-May-18 10:37 35.364920 -120.611187 200 6178ft 116kts
14-May-18 10:38 35.345319 -120.639332 257 5521ft 121kts
14-May-18 10:39 35.334982 -120.676667 242 4323ft 108kts
14-May-18 10:40 35.312248 -120.696555 205 2999ft 106kts
14-May-18 10:41 35.286834 -120.690949 147 2061ft 105kts
14-May-18 10:42 35.263796 -120.669454 135 1389ft 104kts
14-May-18 10:43 35.247173 -120.641668 123 1195ft 100kts
14-May-18 10:44 35.234860 -120.616607 125 1101ft 75kts
14-May-18 10:45 35.228736 -120.625751 298 437ft 59kts
14-May-18 10:46 35.235264 -120.636431 78 205ft 8kts
14-May-18 10:47 35.235353 -120.636146 50 206ft 0kts
14-May-18 10:48 35.235353 -120.636146 50 206ft 0kts
14-May-18 10:49 35.237693 -120.638257 27 198ft 8kts

Navigation Log

Ident Type
Flight plan parsing failed, navigation log unavailable